This is the latest recevied weather packets stored in our database for station/object N1HRK. If no packets are shown the sender has not sent any weather packets the latest 1 day(s).
| Time | Temp. | Humidity | Pressure | Rain* | Wind** | Luminosity | Snow |
|---|---|---|---|---|---|---|---|
| 1778013723 | 17.22° C | 66% | 1009 hPa | 0 mm | 1.79 m/s, 242° | - | - |
| 1778013155 | 17.22° C | 64% | 1009.2 hPa | 0 mm | 3.13 m/s, 233° | - | - |
| 1778013124 | 17.22° C | 64% | 1009.2 hPa | 0 mm | 3.13 m/s, 233° | - | - |
| 1778012524 | 16.67° C | 65% | 1009.3 hPa | 0 mm | 3.58 m/s, 218° | - | - |
| 1778011927 | 16.67° C | 66% | 1009.4 hPa | 0 mm | 2.68 m/s, 246° | - | - |
| 1778011322 | 17.22° C | 65% | 1009.4 hPa | 0 mm | 2.68 m/s, 245° | - | - |
| 1778010724 | 16.67° C | 66% | 1009.3 hPa | 0 mm | 1.79 m/s, 177° | - | - |
| 1778010123 | 17.22° C | 65% | 1009.5 hPa | 0 mm | 2.68 m/s, 255° | - | - |
| 1778009523 | 17.78° C | 64% | 1009.7 hPa | 0 mm | 3.13 m/s, 238° | - | - |
| 1778008924 | 17.78° C | 63% | 1009.7 hPa | 0 mm | 0.89 m/s, 173° | - | - |
| 1778008324 | 17.78° C | 63% | 1009.7 hPa | 0 mm | 1.34 m/s, 235° | - | - |
| 1778007724 | 17.78° C | 63% | 1009.9 hPa | 0 mm | 2.24 m/s, 280° | - | - |
| 1778007124 | 17.78° C | 64% | 1009.9 hPa | 0 mm | 1.34 m/s, 235° | - | - |
| 1778006524 | 17.78° C | 61% | 1009.9 hPa | 0 mm | 3.13 m/s, 246° | - | - |
| 1778005924 | 17.22° C | 64% | 1010.1 hPa | 0 mm | 3.13 m/s, 273° | - | - |
| 1778005324 | 16.67° C | 66% | 1010.2 hPa | 0 mm | 2.68 m/s, 221° | - | - |
| 1778004722 | 17.78° C | 62% | 1010.3 hPa | 0 mm | 2.24 m/s, 298° | - | - |
| 1778004155 | 18.33° C | 60% | 1010.2 hPa | 0 mm | 3.58 m/s, 260° | - | - |
| 1778004124 | 18.33° C | 60% | 1010.2 hPa | 0 mm | 3.58 m/s, 260° | - | - |
| 1778003523 | 18.33° C | 60% | 1010.3 hPa | 0 mm | 2.24 m/s, 222° | - | - |
| 1778002923 | 18.89° C | 59% | 1010.4 hPa | 0 mm | 2.24 m/s, 287° | - | - |
| 1778002323 | 18.89° C | 60% | 1010.5 hPa | 0 mm | 1.79 m/s, 269° | - | - |
| 1778001723 | 18.89° C | 61% | 1010.5 hPa | 0 mm | 2.24 m/s, 228° | - | - |
| 1778001123 | 18.89° C | 61% | 1010.6 hPa | 0 mm | 1.34 m/s, 252° | - | - |
| 1778000522 | 17.78° C | 60% | 1010.5 hPa | 0 mm | 3.58 m/s, 257° | - | - |
* Rain latest hour (hover to see other rain measurements)
** Current wind speed in m/s (hover to see current wind gust speed)